Time;durP1;ratioP1;P1;durP2;ratioP2;P2;SDS_P1;SDS_P2;PMS_P1;PMS_P2;Temp;Humidity;BMP_temperature;BMP_pressure;BME280_temperature;BME280_humidity;BME280_pressure;Samples;Min_cycle;Max_cycle;Signal;HPM_P1;HPM_P2
2022/04/02 00:00:47;;;;;;;16.25;11.95;;;;;;;-0.10;85.22;98886.66;1792509;79;27504;-68
2022/04/02 00:03:14;;;;;;;14.70;11.33;;;;;;;-0.10;85.22;98885.84;1773220;79;26207;-69
2022/04/02 00:05:40;;;;;;;15.65;12.15;;;;;;;-0.11;85.32;98884.27;1751212;80;25775;-68
2022/04/02 00:08:07;;;;;;;17.48;12.28;;;;;;;-0.12;85.29;98881.34;1738922;80;25844;-68
2022/04/02 00:10:33;;;;;;;18.10;12.55;;;;;;;-0.12;85.39;98872.04;1739112;80;25429;-68
2022/04/02 00:12:59;;;;;;;18.07;12.58;;;;;;;-0.14;85.37;98875.51;1764047;80;27491;-68
2022/04/02 00:15:26;;;;;;;17.25;13.15;;;;;;;-0.14;85.26;98882.94;1762043;80;25860;-68
2022/04/02 00:17:52;;;;;;;19.12;13.35;;;;;;;-0.15;85.32;98873.40;1747422;80;25725;-68
2022/04/02 00:20:19;;;;;;;19.35;13.38;;;;;;;-0.14;85.33;98868.32;1750159;80;25623;-68
2022/04/02 00:25:31;;;;;;;19.32;13.18;;;;;;;-0.15;85.45;98871.25;1738985;80;27500;-69
2022/04/02 00:27:58;;;;;;;18.45;12.85;;;;;;;-0.16;85.26;98871.01;1751533;80;25775;-69
2022/04/02 00:30:25;;;;;;;19.10;12.78;;;;;;;-0.17;85.35;98875.54;1753080;80;25403;-69
2022/04/02 00:32:51;;;;;;;17.90;13.43;;;;;;;-0.18;85.30;98870.48;1745338;80;26195;-69
2022/04/02 00:35:17;;;;;;;19.57;13.48;;;;;;;-0.18;85.35;98870.48;1756567;80;25668;-69
2022/04/02 00:37:43;;;;;;;19.82;12.80;;;;;;;-0.17;85.37;98868.89;1771580;80;27457;-69
2022/04/02 00:40:11;;;;;;;18.42;12.65;;;;;;;-0.17;85.35;98867.56;1780326;80;25738;-69
2022/04/02 00:42:37;;;;;;;16.90;12.37;;;;;;;-0.17;85.39;98872.06;1750575;80;25705;-68
2022/04/02 00:45:05;;;;;;;17.92;12.30;;;;;;;-0.17;85.37;98876.86;1753207;80;27747;-68
2022/04/02 00:47:31;;;;;;;17.52;12.80;;;;;;;-0.17;85.38;98866.75;1744306;80;25714;-68
2022/04/02 00:49:58;;;;;;;16.25;11.75;;;;;;;-0.18;85.37;98865.96;1778507;80;27634;-68
2022/04/02 00:52:26;;;;;;;16.62;11.73;;;;;;;-0.17;85.31;98870.22;1758003;80;25573;-67
2022/04/02 00:54:54;;;;;;;16.75;11.93;;;;;;;-0.18;85.25;98874.48;1758334;80;25698;-68
2022/04/02 00:57:22;;;;;;;15.20;12.15;;;;;;;-0.20;85.23;98872.09;1751392;80;25692;-67
2022/04/02 00:59:49;;;;;;;17.67;11.43;;;;;;;-0.22;85.16;98871.57;1759330;80;25458;-67
2022/04/02 01:02:16;;;;;;;14.07;10.15;;;;;;;-0.22;85.19;98872.91;1759102;80;27678;-67
2022/04/02 01:04:42;;;;;;;14.25;10.18;;;;;;;-0.24;85.24;98875.01;1745372;80;25426;-68
2022/04/02 01:07:10;;;;;;;17.25;11.30;;;;;;;-0.25;85.24;98882.20;1757092;80;25454;-68
2022/04/02 01:09:36;;;;;;;15.75;11.08;;;;;;;-0.26;85.21;98876.61;1776953;80;25782;-68
2022/04/02 01:12:05;;;;;;;13.98;9.68;;;;;;;-0.26;85.21;98879.27;1764861;80;25673;-68
2022/04/02 01:14:31;;;;;;;14.15;10.00;;;;;;;-0.26;85.23;98874.49;1761182;80;27481;-68
2022/04/02 01:16:58;;;;;;;13.13;9.50;;;;;;;-0.28;85.25;98876.63;1748583;80;25563;-68
2022/04/02 01:19:24;;;;;;;12.85;9.35;;;;;;;-0.29;85.10;98877.17;1771013;80;25761;-68
2022/04/02 01:21:51;;;;;;;14.35;9.85;;;;;;;-0.31;85.15;98883.27;1770909;80;25511;-68
2022/04/02 01:24:17;;;;;;;14.13;9.98;;;;;;;-0.31;85.05;98886.47;1740563;80;25422;-67
2022/04/02 01:26:44;;;;;;;13.35;9.10;;;;;;;-0.31;85.04;98879.83;1756177;80;29631;-68
2022/04/02 01:29:10;;;;;;;13.38;8.40;;;;;;;-0.32;85.04;98879.55;1757105;80;25466;-68
2022/04/02 01:31:46;;;;;;;13.75;9.35;;;;;;;-0.32;85.11;98877.72;1750092;80;25383;-68
2022/04/02 01:34:13;;;;;;;12.58;8.73;;;;;;;-0.34;84.95;98880.36;1758169;80;25888;-68
2022/04/02 01:36:39;;;;;;;11.65;8.68;;;;;;;-0.35;85.06;98878.25;1755712;80;25476;-68
2022/04/02 01:39:05;;;;;;;12.45;9.08;;;;;;;-0.36;85.07;98870.55;1778724;80;27491;-68
2022/04/02 01:41:31;;;;;;;13.08;9.43;;;;;;;-0.38;84.90;98884.10;1770910;80;27361;-67
2022/04/02 01:43:58;;;;;;;14.33;9.23;;;;;;;-0.41;84.84;98877.99;1761828;80;25911;-68
2022/04/02 01:46:24;;;;;;;11.97;8.50;;;;;;;-0.42;84.82;98883.06;1778012;80;25572;-68
2022/04/02 01:48:50;;;;;;;11.57;8.78;;;;;;;-0.45;84.78;98880.40;1769823;80;25622;-68
2022/04/02 01:51:17;;;;;;;12.98;9.20;;;;;;;-0.45;84.79;98876.95;1746650;80;27835;-67
2022/04/02 01:53:43;;;;;;;11.30;8.20;;;;;;;-0.49;84.80;98875.38;1744432;80;25895;-68
2022/04/02 01:56:10;;;;;;;12.18;8.45;;;;;;;-0.52;84.64;98879.11;1765342;80;25416;-68
2022/04/02 01:58:37;;;;;;;11.60;8.30;;;;;;;-0.57;84.80;98879.91;1716315;80;25653;-68
2022/04/02 02:01:08;;;;;;;12.43;8.78;;;;;;;-0.57;84.83;98878.04;1765489;80;25779;-68
2022/04/02 02:03:33;;;;;;;13.67;9.60;;;;;;;-0.59;84.88;98880.17;1748789;80;27490;-68
2022/04/02 02:05:59;;;;;;;13.95;9.68;;;;;;;-0.61;84.88;98877.00;1757018;80;25656;-68
2022/04/02 02:08:26;;;;;;;12.58;9.30;;;;;;;-0.64;84.71;98884.17;1744476;80;25834;-68
2022/04/02 02:10:52;;;;;;;12.23;9.15;;;;;;;-0.66;84.75;98877.02;1742127;80;26060;-68
2022/04/02 02:13:18;;;;;;;14.68;9.70;;;;;;;-0.67;84.93;98881.27;1763622;80;25427;-68
2022/04/02 02:15:45;;;;;;;12.55;8.58;;;;;;;-0.70;84.82;98882.58;1764222;80;27589;-68
2022/04/02 02:18:11;;;;;;;10.35;8.03;;;;;;;-0.71;84.90;98881.55;1770949;80;25773;-68
2022/04/02 02:20:38;;;;;;;12.88;9.15;;;;;;;-0.72;84.88;98882.06;1771029;80;25404;-68
2022/04/02 02:23:05;;;;;;;11.97;9.23;;;;;;;-0.73;84.93;98886.31;1771156;80;25552;-68
2022/04/02 02:25:33;;;;;;;11.43;8.63;;;;;;;-0.72;84.98;98889.24;1759075;80;25587;-68
2022/04/02 02:27:59;;;;;;;12.30;8.48;;;;;;;-0.71;85.03;98885.53;1780517;80;27608;-68
2022/04/02 02:30:26;;;;;;;13.55;9.08;;;;;;;-0.71;84.95;98886.86;1763142;80;25458;-68
2022/04/02 02:35:49;;;;;;;13.25;9.60;;;;;;;-0.73;84.95;98887.64;1762588;80;25451;-68
2022/04/02 02:38:11;;;;;;;11.08;8.83;;;;;;;-0.79;84.88;98881.01;1762594;80;25763;-68
2022/04/02 02:40:39;;;;;;;12.28;9.03;;;;;;;-0.78;84.88;98880.50;1738910;80;27525;-68
2022/04/02 02:43:08;;;;;;;9.98;7.92;;;;;;;-0.78;84.94;98887.92;1762569;80;25513;-68
2022/04/02 02:45:35;;;;;;;12.43;7.90;;;;;;;-0.80;84.80;98885.25;1769731;80;25428;-68
2022/04/02 02:48:04;;;;;;;10.65;8.65;;;;;;;-0.80;84.91;98887.91;1758239;80;25635;-68
2022/04/02 02:50:30;;;;;;;14.30;9.00;;;;;;;-0.82;84.92;98886.88;1777417;80;25779;-67
2022/04/02 02:52:57;;;;;;;10.00;8.18;;;;;;;-0.83;84.97;98888.47;1745112;80;27493;-67
2022/04/02 02:55:23;;;;;;;12.15;9.55;;;;;;;-0.84;84.96;98889.52;1777730;80;27297;-68
2022/04/02 02:57:50;;;;;;;12.40;9.33;;;;;;;-0.84;84.98;98886.87;1744596;80;25452;-68
2022/04/02 03:00:19;;;;;;;14.40;10.13;;;;;;;-0.85;84.99;98887.92;1763589;80;25520;-68
2022/04/02 03:02:46;;;;;;;13.18;10.23;;;;;;;-0.88;84.82;98889.27;1747647;80;25422;-68
2022/04/02 03:05:16;;;;;;;13.05;9.83;;;;;;;-0.89;84.82;98898.28;1767742;80;27573;-68
2022/04/02 03:07:50;;;;;;;;;;;;;;;-0.88;84.95;98899.09;1752887;80;25866;-68
2022/04/02 03:10:20;;;;;;;11.20;7.58;;;;;;;-0.86;85.09;98899.62;1746132;80;25566;-68
2022/04/02 03:12:48;;;;;;;9.75;7.58;;;;;;;-0.87;85.17;98894.03;1757001;80;25788;-68
2022/04/02 03:15:15;;;;;;;10.85;7.45;;;;;;;-0.88;85.06;98892.45;1739220;80;25390;-68
2022/04/02 03:17:43;;;;;;;13.13;7.97;;;;;;;-0.87;85.11;98891.38;1774822;80;27462;-68
2022/04/02 03:20:12;;;;;;;9.73;7.15;;;;;;;-0.86;85.12;98892.98;1766687;80;25824;-68
2022/04/02 03:22:43;;;;;;;11.20;8.63;;;;;;;-0.86;85.16;98893.77;1751758;80;25433;-68
2022/04/02 03:25:13;;;;;;;14.00;8.13;;;;;;;-0.88;85.07;98897.23;1751283;80;25786;-68
2022/04/02 03:27:43;;;;;;;10.78;8.30;;;;;;;-0.89;85.10;98902.27;1755664;80;25462;-66
2022/04/02 03:30:12;;;;;;;9.68;8.13;;;;;;;-0.92;85.06;98897.48;1762855;80;28091;-68
2022/04/02 03:32:40;;;;;;;13.10;9.43;;;;;;;-0.91;85.17;98899.62;1774149;80;25869;-68
2022/04/02 03:35:08;;;;;;;14.73;8.80;;;;;;;-0.92;85.04;98904.66;1764079;80;25373;-68
2022/04/02 03:37:36;;;;;;;14.18;8.70;;;;;;;-0.94;85.07;98899.61;1767285;80;25549;-68
2022/04/02 03:40:09;;;;;;;10.98;8.25;;;;;;;-0.93;85.14;98899.10;1764115;80;25858;-68
2022/04/02 03:42:38;;;;;;;9.03;7.65;;;;;;;-0.91;85.15;98900.95;1766267;80;27601;-68
2022/04/02 03:45:07;;;;;;;9.65;7.80;;;;;;;-0.92;85.20;98909.42;1758406;80;25438;-68
2022/04/02 03:47:33;;;;;;;10.35;7.47;;;;;;;-0.92;85.20;98894.83;1769972;80;25454;-66
2022/04/02 03:50:00;;;;;;;9.48;7.12;;;;;;;-0.91;85.18;98902.28;1762780;80;25481;-67
2022/04/02 03:52:26;;;;;;;8.98;7.05;;;;;;;-0.91;85.11;98895.64;1751628;80;25632;-66
2022/04/02 03:54:53;;;;;;;11.97;7.65;;;;;;;-0.91;85.10;98906.27;1755009;80;27611;-66
2022/04/02 03:57:21;;;;;;;9.38;7.53;;;;;;;-0.91;85.10;98904.94;1776733;80;25423;-66
2022/04/02 03:59:47;;;;;;;11.15;8.43;;;;;;;-0.91;85.10;98905.72;1776317;80;25595;-67
2022/04/02 04:02:13;;;;;;;9.03;7.47;;;;;;;-0.92;85.01;98904.12;1749791;80;26171;-66
2022/04/02 04:04:40;;;;;;;11.65;8.68;;;;;;;-0.93;85.01;98906.52;1744565;80;25794;-66
2022/04/02 04:07:08;;;;;;;10.43;8.23;;;;;;;-0.95;84.98;98908.66;1761694;80;27502;-66
2022/04/02 04:09:36;;;;;;;10.08;7.78;;;;;;;-0.93;84.99;98909.72;1779957;80;25381;-66
2022/04/02 04:12:04;;;;;;;10.45;8.23;;;;;;;-0.95;84.96;98904.13;1762905;80;25826;-66
2022/04/02 04:14:31;;;;;;;11.48;8.28;;;;;;;-0.96;84.85;98906.52;1750135;80;25517;-67
2022/04/02 04:16:57;;;;;;;13.10;9.48;;;;;;;-0.97;84.88;98910.76;1767882;80;25615;-66
2022/04/02 04:19:24;;;;;;;13.80;8.45;;;;;;;-0.98;84.79;98905.20;1777964;80;27477;-67
2022/04/02 04:21:50;;;;;;;11.43;8.43;;;;;;;-1.00;84.77;98913.97;1758035;80;25717;-66
2022/04/02 04:24:16;;;;;;;11.05;8.18;;;;;;;-1.01;84.85;98909.71;1752183;80;25399;-67
2022/04/02 04:26:43;;;;;;;12.98;8.43;;;;;;;-1.03;84.75;98911.30;1744564;80;26394;-67
2022/04/02 04:29:11;;;;;;;10.68;8.03;;;;;;;-1.04;84.74;98912.89;1776683;80;25460;-67
2022/04/02 04:31:38;;;;;;;10.13;7.42;;;;;;;-1.04;84.90;98916.36;1750092;79;27539;-67
2022/04/02 04:34:06;;;;;;;11.25;7.65;;;;;;;-1.03;84.91;98913.95;1765651;80;25395;-67
2022/04/02 04:36:33;;;;;;;9.13;7.37;;;;;;;-1.02;84.86;98917.39;1768822;80;25866;-67
2022/04/02 04:39:00;;;;;;;9.38;7.05;;;;;;;-1.02;84.93;98923.52;1762276;80;26170;-67
2022/04/02 04:41:26;;;;;;;9.50;7.75;;;;;;;-1.01;84.89;98918.45;1751802;80;25377;-67
2022/04/02 04:43:52;;;;;;;10.38;7.03;;;;;;;-1.00;84.98;98927.23;1752611;80;27451;-67
2022/04/02 04:46:20;;;;;;;8.63;6.62;;;;;;;-1.01;84.97;98930.41;1749162;80;25881;-67
2022/04/02 04:48:47;;;;;;;9.33;6.58;;;;;;;-0.99;85.07;98919.02;1776636;80;25377;-67
2022/04/02 04:51:14;;;;;;;9.15;6.28;;;;;;;-1.00;84.88;98926.70;1771622;80;27716;-67
2022/04/02 04:53:41;;;;;;;10.08;6.08;;;;;;;-0.99;84.88;98927.48;1738986;80;25817;-67
2022/04/02 04:56:08;;;;;;;8.10;6.55;;;;;;;-0.97;84.91;98927.50;1751762;80;27447;-67
2022/04/02 04:58:36;;;;;;;8.43;5.97;;;;;;;-0.96;84.91;98926.96;1764313;80;25452;-67
2022/04/02 05:01:03;;;;;;;9.10;6.70;;;;;;;-0.94;84.99;98934.13;1754655;80;25460;-67
2022/04/02 05:03:32;;;;;;;8.85;6.78;;;;;;;-0.94;84.85;98931.47;1767025;80;26505;-67
2022/04/02 05:05:59;;;;;;;7.42;5.60;;;;;;;-0.93;84.86;98933.07;1762114;80;25402;-67
2022/04/02 05:08:28;;;;;;;9.35;5.80;;;;;;;-0.95;84.71;98933.87;1771390;80;28204;-67
2022/04/02 05:10:55;;;;;;;10.38;5.85;;;;;;;-0.95;84.65;98939.97;1735081;80;25793;-66
2022/04/02 05:13:22;;;;;;;8.53;5.08;;;;;;;-0.97;84.61;98932.81;1774070;80;25597;-68
2022/04/02 05:15:50;;;;;;;12.03;6.33;;;;;;;-0.97;84.65;98942.09;1762817;80;25533;-66
2022/04/02 05:18:16;;;;;;;9.23;6.03;;;;;;;-0.96;84.72;98936.25;1744622;80;25855;-67
2022/04/02 05:20:43;;;;;;;8.00;5.47;;;;;;;-0.92;84.87;98942.61;1765541;80;27572;-66
2022/04/02 05:23:09;;;;;;;5.78;4.87;;;;;;;-0.90;84.83;98937.86;1772428;80;27373;-66
2022/04/02 05:25:38;;;;;;;6.20;4.95;;;;;;;-0.88;84.90;98939.70;1756430;80;25845;-66
2022/04/02 05:28:05;;;;;;;11.13;5.47;;;;;;;-0.85;84.80;98935.70;1756349;80;25540;-66
2022/04/02 05:30:37;;;;;;;6.62;5.10;;;;;;;-0.85;84.57;98944.48;1771281;80;25385;-66
2022/04/02 05:33:06;;;;;;;7.25;5.42;;;;;;;-0.83;84.58;98948.20;1753576;80;27539;-68
2022/04/02 05:35:33;;;;;;;7.10;5.30;;;;;;;-0.80;84.64;98947.66;1765270;80;25492;-68
2022/04/02 05:38:02;;;;;;;8.80;5.37;;;;;;;-0.75;84.67;98952.95;1770996;80;25407;-66
2022/04/02 05:40:29;;;;;;;8.85;6.15;;;;;;;-0.74;84.53;98955.10;1765856;80;25884;-67
2022/04/02 05:42:55;;;;;;;9.20;5.58;;;;;;;-0.71;84.71;98952.70;1744577;80;25402;-68
2022/04/02 05:45:22;;;;;;;7.28;4.92;;;;;;;-0.68;84.59;98950.85;1750113;80;28287;-67
2022/04/02 05:47:52;;;;;;;8.65;6.35;;;;;;;-0.66;84.37;98954.57;1759581;80;25608;-67
2022/04/02 05:50:21;;;;;;;8.90;6.22;;;;;;;-0.65;84.29;98957.47;1763873;80;25487;-68
2022/04/02 05:52:52;;;;;;;6.25;4.53;;;;;;;-0.62;84.21;98958.27;1771565;80;25641;-67
2022/04/02 05:55:19;;;;;;;9.90;6.25;;;;;;;-0.63;84.08;98956.67;1761935;80;25742;-66
2022/04/02 05:57:48;;;;;;;8.35;5.92;;;;;;;-0.59;84.36;98964.38;1755709;80;28060;-67
2022/04/02 06:00:17;;;;;;;8.93;6.20;;;;;;;-0.57;84.13;98969.67;1761507;80;25537;-67
2022/04/02 06:02:45;;;;;;;9.48;5.72;;;;;;;-0.55;84.04;98970.73;1740425;80;25439;-66
2022/04/02 06:05:15;;;;;;;12.28;6.30;;;;;;;-0.56;83.85;98971.82;1758524;80;25592;-67
2022/04/02 06:07:42;;;;;;;;;;;;;;;-0.55;83.72;98975.27;1733790;80;25635;-67
2022/04/02 06:10:10;;;;;;;7.85;5.92;;;;;;;-0.54;83.82;98976.88;1761544;80;27603;-66
2022/04/02 06:12:37;;;;;;;9.40;6.30;;;;;;;-0.53;83.75;98974.46;1770945;80;25379;-66
2022/04/02 06:15:09;;;;;;;9.15;6.30;;;;;;;-0.53;83.59;98980.56;1773149;80;25459;-66
2022/04/02 06:17:37;;;;;;;8.85;5.87;;;;;;;-0.53;83.40;98979.77;1749350;80;26962;-67
2022/04/02 06:20:06;;;;;;;8.65;6.47;;;;;;;-0.50;83.65;98986.67;1745430;80;25468;-66
2022/04/02 06:22:33;;;;;;;9.03;6.83;;;;;;;-0.47;83.73;98982.16;1774295;80;28117;-67
2022/04/02 06:25:00;;;;;;;9.75;6.22;;;;;;;-0.47;83.41;98986.14;1762186;78;25348;-67
2022/04/02 06:27:27;;;;;;;8.83;5.87;;;;;;;-0.46;83.42;98989.08;1743961;80;25574;-67
2022/04/02 06:29:53;;;;;;;14.10;8.20;;;;;;;-0.45;83.37;98991.19;1758915;80;25501;-67
2022/04/02 06:32:22;;;;;;;11.43;7.78;;;;;;;-0.45;83.21;98995.17;1746352;80;25858;-66
2022/04/02 06:34:48;;;;;;;10.30;6.20;;;;;;;-0.45;83.22;98993.31;1759227;80;27495;-66
2022/04/02 06:37:15;;;;;;;7.08;5.70;;;;;;;-0.43;83.22;98991.71;1755902;80;25649;-67
2022/04/02 06:39:41;;;;;;;8.48;6.08;;;;;;;-0.43;82.97;98994.37;1761379;80;25838;-66
2022/04/02 06:42:08;;;;;;;10.80;5.62;;;;;;;-0.42;83.24;98994.11;1758384;80;25759;-66
2022/04/02 06:44:35;;;;;;;11.12;6.00;;;;;;;-0.38;83.42;99001.80;1751937;80;25676;-67
2022/04/02 06:47:03;;;;;;;7.28;5.80;;;;;;;-0.31;83.34;98999.41;1747090;80;27535;-67
2022/04/02 06:49:29;;;;;;;7.72;5.85;;;;;;;-0.29;83.16;99002.58;1759840;79;25724;-66
2022/04/02 06:51:57;;;;;;;8.33;5.40;;;;;;;-0.29;82.82;99000.74;1767011;80;25511;-66
2022/04/02 06:54:24;;;;;;;7.20;5.33;;;;;;;-0.27;82.78;99003.13;1773660;80;25738;-66
2022/04/02 06:56:50;;;;;;;9.53;6.45;;;;;;;-0.26;82.96;99003.37;1766492;80;26583;-66
2022/04/02 06:59:17;;;;;;;7.08;5.70;;;;;;;-0.25;82.66;99011.09;1740758;80;27525;-67
2022/04/02 07:01:44;;;;;;;11.10;5.97;;;;;;;-0.24;82.86;99006.56;1748231;80;25582;-66
2022/04/02 07:04:11;;;;;;;8.85;6.05;;;;;;;-0.21;82.77;99016.12;1725783;81;25457;-66
2022/04/02 07:06:44;;;;;;;9.35;5.50;;;;;;;-0.14;83.23;99012.39;1712013;81;25819;-66
2022/04/02 07:09:06;;;;;;;8.73;5.90;;;;;;;-0.08;82.98;99013.98;1732044;80;25428;-67
2022/04/02 07:11:32;;;;;;;10.48;6.72;;;;;;;-0.04;82.93;99011.83;1745667;81;27502;-66
2022/04/02 07:13:59;;;;;;;7.80;5.35;;;;;;;0.02;82.91;99013.14;1735783;81;25859;-66
2022/04/02 07:16:32;;;;;;;8.15;5.97;;;;;;;0.03;82.31;99009.43;1747542;81;25563;-66
2022/04/02 07:18:58;;;;;;;9.45;5.65;;;;;;;-0.01;81.71;99017.94;1714390;81;25698;-67
2022/04/02 07:21:27;;;;;;;9.95;6.67;;;;;;;0.00;81.96;99014.77;1736991;81;25863;-66
2022/04/02 07:23:55;;;;;;;10.98;6.25;;;;;;;0.03;81.86;99022.72;1716560;82;27653;-67
2022/04/02 07:26:22;;;;;;;18.57;10.93;;;;;;;-0.01;81.75;99016.61;1713031;81;25654;-67
2022/04/02 07:28:52;;;;;;;14.68;9.08;;;;;;;0.03;81.81;99014.20;1677342;82;25913;-67
2022/04/02 07:31:18;;;;;;;9.70;6.17;;;;;;;0.06;81.89;99016.33;1698271;84;26397;-67
2022/04/02 07:33:45;;;;;;;8.03;5.83;;;;;;;0.13;82.37;99018.70;1684688;83;25481;-67
2022/04/02 07:36:20;;;;;;;7.28;5.17;;;;;;;0.20;82.05;99025.07;1737561;81;29655;-67
2022/04/02 07:39:05;;;;;;;6.58;4.85;;;;;;;0.21;81.56;99023.47;1720452;81;25696;-67
2022/04/02 07:41:46;;;;;;;8.35;5.33;;;;;;;0.23;81.46;99023.20;1737790;81;25441;-68
2022/04/02 07:44:32;;;;;;;12.55;7.28;;;;;;;0.21;81.37;99018.16;1708171;82;25753;-67
2022/04/02 07:46:59;;;;;;;10.45;6.42;;;;;;;0.27;81.54;99026.90;1736747;81;25656;-67
2022/04/02 07:49:29;;;;;;;8.93;5.35;;;;;;;0.30;81.48;99029.81;1703779;83;27616;-67
2022/04/02 07:51:57;;;;;;;9.10;5.97;;;;;;;0.35;81.25;99028.46;1705813;82;25751;-67
2022/04/02 07:54:27;;;;;;;11.70;5.85;;;;;;;0.38;81.24;99027.14;1724208;82;25652;-68
2022/04/02 07:57:02;;;;;;;10.48;6.35;;;;;;;0.42;81.26;99026.84;1716630;82;25655;-67
2022/04/02 07:59:37;;;;;;;8.05;5.55;;;;;;;0.45;81.22;99026.30;1730122;82;25516;-67
2022/04/02 08:02:36;;;;;;;9.65;5.75;;;;;;;0.50;80.89;99030.81;1718629;82;27481;-67
2022/04/02 08:04:35;;;;;;;7.30;6.10;;;;;;;0.53;80.85;99027.61;1699190;83;25509;-67
2022/04/02 08:07:06;;;;;;;9.83;6.45;;;;;;;0.53;80.61;99034.27;1683715;83;25608;-66
2022/04/02 08:09:33;;;;;;;8.65;6.03;;;;;;;0.57;80.89;99035.84;1712172;81;26223;-67
2022/04/02 08:12:00;;;;;;;10.65;5.95;;;;;;;0.62;80.81;99035.27;1721287;81;25406;-67
2022/04/02 08:14:29;;;;;;;10.72;7.00;;;;;;;0.67;80.61;99047.23;1697288;83;27515;-67
2022/04/02 08:16:57;;;;;;;11.30;7.53;;;;;;;0.70;80.43;99048.02;1679005;83;27407;-67
2022/04/02 08:19:24;;;;;;;9.55;6.67;;;;;;;0.70;80.30;99042.69;1707237;82;25658;-68
2022/04/02 08:21:50;;;;;;;8.43;5.87;;;;;;;0.73;80.38;99046.66;1716292;82;25998;-68
2022/04/02 08:24:16;;;;;;;10.03;6.50;;;;;;;0.76;80.15;99049.32;1707372;82;26266;-67
2022/04/02 08:26:57;;;;;;;7.92;6.47;;;;;;;0.77;80.03;99050.38;1708021;82;27485;-67
2022/04/02 08:29:48;;;;;;;8.43;6.53;;;;;;;0.80;80.12;99056.49;1682713;83;25706;-67
2022/04/02 08:33:12;;;;;;;11.48;7.42;;;;;;;0.83;79.91;99057.80;1669566;84;25675;-67
2022/04/02 08:36:07;;;;;;;9.90;5.72;;;;;;;0.85;79.94;99052.47;1714226;81;25936;-67
2022/04/02 08:38:59;;;;;;;10.13;6.22;;;;;;;0.89;79.77;99056.70;1742758;81;25405;-67
2022/04/02 08:42:01;;;;;;;10.70;6.60;;;;;;;0.93;79.80;99057.73;1743359;81;27524;-67
2022/04/02 08:45:03;;;;;;;8.50;5.58;;;;;;;0.95;79.76;99060.91;1714928;82;25683;-67
2022/04/02 08:47:41;;;;;;;10.08;6.22;;;;;;;1.04;80.17;99053.14;1668547;83;25663;-67
2022/04/02 08:50:16;;;;;;;11.38;7.40;;;;;;;1.11;80.31;99058.98;1693843;82;26120;-66
2022/04/02 08:52:52;;;;;;;7.25;5.78;;;;;;;1.17;79.72;99064.52;1721100;81;25464;-67
2022/04/02 08:55:35;;;;;;;9.33;5.80;;;;;;;1.21;79.56;99064.23;1755692;80;27367;-67
2022/04/02 08:58:11;;;;;;;9.33;6.00;;;;;;;1.21;79.05;99071.41;1737824;81;25687;-68
2022/04/02 09:00:45;;;;;;;9.53;6.22;;;;;;;1.22;78.87;99062.36;1741009;82;25772;-66
2022/04/02 09:03:25;;;;;;;8.70;5.75;;;;;;;1.17;78.79;99067.17;1674839;85;25838;-66
2022/04/02 09:06:30;;;;;;;8.73;6.40;;;;;;;1.28;79.61;99067.38;1690174;84;25428;-68
2022/04/02 09:09:08;;;;;;;9.45;5.90;;;;;;;1.40;79.55;99070.23;1705817;82;27509;-67
2022/04/02 09:12:12;;;;;;;9.18;6.00;;;;;;;1.47;78.99;99076.04;1690235;82;25839;-67
2022/04/02 09:15:10;;;;;;;8.80;5.87;;;;;;;1.46;78.50;99079.77;1707947;83;25657;-67
2022/04/02 09:17:58;;;;;;;10.28;6.33;;;;;;;1.54;79.00;99079.17;1734715;80;25736;-67
2022/04/02 09:21:20;;;;;;;9.65;6.58;;;;;;;1.70;79.25;99084.39;1712013;81;25715;-66
2022/04/02 09:24:09;;;;;;;10.23;6.42;;;;;;;1.76;78.57;99080.06;1667215;83;28309;-66
2022/04/02 09:26:59;;;;;;;10.50;7.00;;;;;;;1.76;77.95;99082.73;1703019;84;26155;-67
2022/04/02 09:29:33;;;;;;;8.63;6.60;;;;;;;1.77;77.93;99096.34;1623280;87;25642;-67
2022/04/02 09:32:27;;;;;;;8.78;7.03;;;;;;;1.84;78.24;99094.13;1639640;86;26487;-67
2022/04/02 09:35:33;;;;;;;9.40;6.65;;;;;;;1.98;78.68;99087.60;1623703;86;25473;-69
2022/04/02 09:38:22;;;;;;;9.33;6.42;;;;;;;2.07;78.02;99093.67;1609509;88;27555;-67
2022/04/02 09:40:52;;;;;;;8.05;6.42;;;;;;;2.08;77.34;99085.91;1574520;90;25803;-68
2022/04/02 09:43:36;;;;;;;11.03;6.22;;;;;;;2.17;77.98;99088.23;1584113;88;25756;-68
2022/04/02 09:46:13;;;;;;;8.65;6.90;;;;;;;2.31;78.10;99087.02;1581409;88;29147;-68
2022/04/02 09:49:02;;;;;;;8.33;5.90;;;;;;;2.40;77.67;99095.45;1573398;90;25782;-68
2022/04/02 09:51:33;;;;;;;8.68;6.42;;;;;;;2.45;76.97;99095.13;1565128;89;28191;-69
2022/04/02 09:54:08;;;;;;;9.75;7.00;;;;;;;2.49;76.66;99094.30;1599345;87;26187;-69
2022/04/02 09:56:41;;;;;;;10.05;6.60;;;;;;;2.50;76.32;99093.20;1616326;87;25848;-69
2022/04/02 09:59:13;;;;;;;10.13;6.97;;;;;;;2.50;76.05;99098.53;1606819;87;25807;-70
2022/04/02 10:02:08;;;;;;;8.08;6.42;;;;;;;2.53;76.10;99102.52;1577019;90;25841;-71
2022/04/02 10:04:52;;;;;;;14.53;6.90;;;;;;;2.54;76.44;99104.13;1538390;90;27552;-70
2022/04/02 10:07:51;;;;;;;10.48;7.12;;;;;;;2.68;76.94;99092.21;1579963;88;27408;-69
2022/04/02 10:10:21;;;;;;;11.55;7.58;;;;;;;2.63;76.04;99089.05;1569008;89;25675;-69
2022/04/02 10:12:48;;;;;;;;;;;;;;;2.62;75.73;99100.80;1569176;89;25807;-70
2022/04/02 10:15:17;;;;;;;12.93;7.65;;;;;;;2.66;76.52;99098.38;1608533;88;25847;-69
2022/04/02 10:17:50;;;;;;;11.70;7.90;;;;;;;2.67;76.14;99110.64;1619578;87;27548;-71
2022/04/02 10:20:28;;;;;;;10.13;6.90;;;;;;;2.69;76.26;99102.61;1623294;86;25845;-71
2022/04/02 10:23:02;;;;;;;12.88;7.67;;;;;;;2.79;76.33;99109.68;1632558;86;25974;-71
2022/04/02 10:25:33;;;;;;;10.15;7.45;;;;;;;2.87;76.27;99102.92;1629974;86;25749;-71
2022/04/02 10:28:02;;;;;;;8.43;6.90;;;;;;;3.07;76.72;99109.89;1645412;86;25833;-71
2022/04/02 10:30:30;;;;;;;12.35;7.47;;;;;;;3.07;75.60;99109.33;1642450;86;27600;-69
2022/04/02 10:35:54;;;;;;;9.75;6.92;;;;;;;3.15;75.47;99114.56;1630062;86;25875;-71
2022/04/02 10:38:39;;;;;;;11.10;7.53;;;;;;;3.14;75.11;99111.10;1615689;85;25601;-72
2022/04/02 10:41:17;;;;;;;12.00;7.35;;;;;;;3.06;74.56;99113.08;1659432;83;25764;-69
2022/04/02 10:44:05;;;;;;;12.23;7.72;;;;;;;3.03;75.13;99120.36;1685180;84;27114;-70
2022/04/02 10:46:32;;;;;;;12.30;8.80;;;;;;;3.09;75.35;99117.85;1679537;84;25717;-70
2022/04/02 10:49:08;;;;;;;11.00;9.10;;;;;;;3.20;75.05;99122.50;1664782;84;25844;-71
2022/04/02 10:51:35;;;;;;;13.03;8.20;;;;;;;3.28;75.28;99131.22;1653466;85;25531;-69
2022/04/02 10:54:10;;;;;;;12.75;8.70;;;;;;;3.34;75.41;99131.41;1651956;85;25461;-70
2022/04/02 10:56:46;;;;;;;12.85;8.40;;;;;;;3.41;75.25;99123.59;1668833;85;28040;-70
2022/04/02 10:59:15;;;;;;;12.80;8.63;;;;;;;3.55;75.36;99131.11;1665831;84;25814;-70
2022/04/02 11:01:46;;;;;;;13.30;9.33;;;;;;;3.64;74.91;99126.68;1660768;85;25438;-70
2022/04/02 11:04:45;;;;;;;13.65;9.23;;;;;;;3.64;74.35;99126.68;1642874;85;25591;-70
2022/04/02 11:07:17;;;;;;;12.00;9.58;;;;;;;3.70;74.50;99124.75;1652324;84;27276;-71
2022/04/02 11:09:43;;;;;;;12.68;8.78;;;;;;;3.80;74.51;99123.77;1674485;84;27460;-71
2022/04/02 11:12:18;;;;;;;11.63;9.15;;;;;;;3.82;73.71;99122.95;1617196;86;25762;-72
2022/04/02 11:14:49;;;;;;;12.20;8.70;;;;;;;3.77;73.51;99129.73;1649354;84;25882;-71
2022/04/02 11:17:32;;;;;;;12.45;9.30;;;;;;;3.74;73.72;99126.52;1654784;85;26032;-71
2022/04/02 11:20:15;;;;;;;14.05;9.53;;;;;;;3.72;73.11;99123.91;1668247;84;25721;-72
2022/04/02 11:22:57;;;;;;;14.03;9.48;;;;;;;3.66;73.58;99124.53;1648068;84;27480;-73
2022/04/02 11:25:37;;;;;;;13.10;10.23;;;;;;;3.74;74.21;99119.84;1608847;85;25814;-73
2022/04/02 11:28:18;;;;;;;13.15;9.78;;;;;;;3.91;74.68;99126.53;1648724;85;25837;-73
2022/04/02 11:30:55;;;;;;;15.40;9.40;;;;;;;4.01;74.21;99121.02;1669631;84;25614;-73
2022/04/02 11:33:26;;;;;;;12.90;8.90;;;;;;;4.09;73.89;99124.36;1625020;85;25412;-74
2022/04/02 11:35:56;;;;;;;15.78;9.28;;;;;;;4.15;73.92;99120.25;1654328;85;28119;-73
2022/04/02 11:38:36;;;;;;;14.70;9.50;;;;;;;4.23;73.35;99124.94;1672801;85;25702;-73
2022/04/02 11:41:24;;;;;;;11.60;9.10;;;;;;;4.26;73.45;99127.81;1635521;84;25491;-74
2022/04/02 11:47:03;;;;;;;14.35;9.68;;;;;;;4.34;72.72;99124.20;1593722;88;25723;-76
2022/04/02 11:49:39;;;;;;;12.65;9.23;;;;;;;4.33;72.91;99136.02;1578940;89;27501;-73
2022/04/02 11:52:09;;;;;;;15.25;9.90;;;;;;;4.32;72.68;99123.70;1608317;88;25911;-72
2022/04/02 11:54:41;;;;;;;;;;;;;;;4.35;73.02;99121.78;1617361;87;25767;-72
2022/04/02 11:57:11;;;;;;;17.02;9.45;;;;;;;4.42;73.14;99124.86;1584028;88;25555;-71
2022/04/02 11:59:52;;;;;;;17.05;10.48;;;;;;;4.48;73.38;99115.09;1639060;86;25585;-72
2022/04/02 12:02:40;;;;;;;14.45;10.20;;;;;;;4.58;73.66;99117.31;1622481;88;27701;-72